Time;durP1;ratioP1;P1;durP2;ratioP2;P2;SDS_P1;SDS_P2;PMS_P1;PMS_P2;Temp;Humidity;BMP_temperature;BMP_pressure;BME280_temperature;BME280_humidity;BME280_pressure;Samples;Min_cycle;Max_cycle;Signal;HPM_P1;HPM_P2
2022/03/09 00:00:11;;;;;;;19.65;6.88;;;;;;;;;;5033860;28;20108;-84
2022/03/09 00:02:38;;;;;;;11.68;5.55;;;;;;;;;;5032113;28;20835;-84
2022/03/09 00:05:05;;;;;;;12.32;5.20;;;;;;;;;;5031564;28;20507;-84
2022/03/09 00:07:32;;;;;;;10.77;5.00;;;;;;;;;;5017431;28;20041;-84
2022/03/09 00:09:58;;;;;;;11.15;4.95;;;;;;;;;;5011810;28;20713;-84
2022/03/09 00:12:26;;;;;;;12.52;5.82;;;;;;;;;;5014494;28;20073;-84
2022/03/09 00:14:53;;;;;;;17.17;7.22;;;;;;;;;;5009249;28;20547;-84
2022/03/09 00:17:19;;;;;;;17.33;7.28;;;;;;;;;;5016096;28;20054;-85
2022/03/09 00:19:46;;;;;;;20.35;9.18;;;;;;;;;;5015143;28;20383;-84
2022/03/09 00:22:13;;;;;;;20.02;8.30;;;;;;;;;;5016415;28;20153;-84
2022/03/09 00:24:39;;;;;;;17.17;7.15;;;;;;;;;;5016368;28;20062;-84
2022/03/09 00:27:06;;;;;;;17.25;6.18;;;;;;;;;;5014714;28;20046;-84
2022/03/09 00:29:34;;;;;;;15.25;7.07;;;;;;;;;;5016416;28;20445;-85
2022/03/09 00:32:01;;;;;;;16.77;7.28;;;;;;;;;;5017193;28;20092;-84
2022/03/09 00:34:28;;;;;;;12.25;5.78;;;;;;;;;;5024359;28;20575;-85
2022/03/09 00:36:54;;;;;;;14.32;6.47;;;;;;;;;;5013887;28;20579;-84
2022/03/09 00:39:21;;;;;;;15.77;6.43;;;;;;;;;;5018237;28;20053;-84
2022/03/09 00:41:47;;;;;;;11.75;5.82;;;;;;;;;;5022734;28;20452;-84
2022/03/09 00:44:15;;;;;;;13.65;6.50;;;;;;;;;;5014937;28;20517;-85
2022/03/09 00:46:43;;;;;;;10.73;5.03;;;;;;;;;;5019797;28;20048;-85
2022/03/09 00:49:10;;;;;;;22.83;8.18;;;;;;;;;;5015733;28;20074;-84
2022/03/09 00:51:36;;;;;;;21.80;8.52;;;;;;;;;;5006929;28;20542;-85
2022/03/09 00:54:03;;;;;;;24.10;9.80;;;;;;;;;;5020182;28;20561;-85
2022/03/09 00:56:29;;;;;;;18.25;8.07;;;;;;;;;;5006576;28;20464;-85
2022/03/09 00:58:56;;;;;;;12.27;5.43;;;;;;;;;;5017493;28;20081;-85
2022/03/09 01:01:22;;;;;;;13.20;5.93;;;;;;;;;;5021220;28;20138;-85
2022/03/09 01:03:50;;;;;;;8.15;4.75;;;;;;;;;;5012407;28;20050;-84
2022/03/09 01:06:17;;;;;;;14.90;6.15;;;;;;;;;;5026790;28;20041;-84
2022/03/09 01:08:43;;;;;;;10.73;5.55;;;;;;;;;;5034500;28;20085;-84
2022/03/09 01:11:10;;;;;;;9.27;5.25;;;;;;;;;;5040534;28;20053;-84
2022/03/09 01:13:37;;;;;;;9.57;4.57;;;;;;;;;;5035558;28;20084;-85
2022/03/09 01:16:04;;;;;;;8.32;4.45;;;;;;;;;;5032162;28;20077;-85
2022/03/09 01:18:31;;;;;;;9.10;4.38;;;;;;;;;;5041271;28;20562;-84
2022/03/09 01:20:59;;;;;;;9.80;4.63;;;;;;;;;;5040461;28;20447;-84
2022/03/09 01:23:25;;;;;;;10.88;4.60;;;;;;;;;;5035578;28;20128;-84
2022/03/09 01:25:53;;;;;;;9.73;4.30;;;;;;;;;;5041181;28;20079;-82
2022/03/09 01:28:20;;;;;;;8.60;4.38;;;;;;;;;;5037015;28;20045;-81
2022/03/09 01:30:46;;;;;;;9.68;4.68;;;;;;;;;;5035744;28;20086;-81
2022/03/09 01:33:16;;;;;;;12.20;4.75;;;;;;;;;;5035496;28;20073;-82
2022/03/09 01:35:49;;;;;;;8.45;4.40;;;;;;;;;;5032512;28;20096;-82
2022/03/09 01:38:17;;;;;;;9.75;4.82;;;;;;;;;;5035765;28;20037;-82
2022/03/09 01:40:44;;;;;;;9.98;5.05;;;;;;;;;;5029621;28;20424;-82
2022/03/09 01:43:14;;;;;;;9.43;5.10;;;;;;;;;;5039763;28;20104;-81
2022/03/09 01:45:41;;;;;;;9.75;5.00;;;;;;;;;;5037205;28;20069;-81
2022/03/09 01:48:08;;;;;;;7.38;3.92;;;;;;;;;;5032350;28;20281;-81
2022/03/09 01:50:36;;;;;;;9.35;4.30;;;;;;;;;;5034560;28;20072;-81
2022/03/09 01:53:03;;;;;;;9.23;4.88;;;;;;;;;;5038486;28;20522;-81
2022/03/09 01:55:31;;;;;;;12.95;4.25;;;;;;;;;;5039628;28;20045;-81
2022/03/09 01:57:57;;;;;;;11.38;4.72;;;;;;;;;;5032778;28;20045;-82
2022/03/09 02:00:24;;;;;;;8.30;4.65;;;;;;;;;;5032588;28;20081;-84
2022/03/09 02:02:50;;;;;;;11.40;5.10;;;;;;;;;;5033336;28;20068;-84
2022/03/09 02:05:17;;;;;;;10.15;4.70;;;;;;;;;;5033903;28;20109;-84
2022/03/09 02:10:33;;;;;;;12.65;4.80;;;;;;;;;;5036456;28;20045;-84
2022/03/09 02:13:00;;;;;;;7.45;4.18;;;;;;;;;;5027387;28;20080;-85
2022/03/09 02:15:27;;;;;;;14.77;4.38;;;;;;;;;;5035335;28;20050;-84
2022/03/09 02:17:53;;;;;;;8.40;4.88;;;;;;;;;;5031396;28;20104;-84
2022/03/09 02:20:22;;;;;;;8.00;4.53;;;;;;;;;;5037335;28;20087;-84
2022/03/09 02:22:53;;;;;;;9.48;4.78;;;;;;;;;;5043923;28;20057;-84
2022/03/09 02:25:20;;;;;;;10.30;4.00;;;;;;;;;;5041946;28;20072;-84
2022/03/09 02:27:47;;;;;;;8.73;4.22;;;;;;;;;;5038651;28;20073;-85
2022/03/09 02:30:15;;;;;;;9.90;4.32;;;;;;;;;;5041763;28;20085;-84
2022/03/09 02:32:42;;;;;;;9.80;5.07;;;;;;;;;;5036907;28;20527;-84
2022/03/09 02:35:09;;;;;;;9.38;3.88;;;;;;;;;;5045602;28;20050;-85
2022/03/09 02:37:36;;;;;;;13.70;5.50;;;;;;;;;;5043287;28;20053;-84
2022/03/09 02:40:04;;;;;;;17.42;6.75;;;;;;;;;;5040175;28;20129;-84
2022/03/09 02:42:31;;;;;;;15.30;6.97;;;;;;;;;;5038087;28;20128;-84
2022/03/09 02:44:57;;;;;;;14.27;6.28;;;;;;;;;;5035335;28;20049;-84
2022/03/09 02:47:24;;;;;;;13.35;5.53;;;;;;;;;;5038876;28;20049;-84
2022/03/09 02:49:51;;;;;;;11.13;5.38;;;;;;;;;;5039553;28;20069;-84
2022/03/09 02:52:17;;;;;;;13.23;5.60;;;;;;;;;;5039436;28;20049;-84
2022/03/09 02:54:44;;;;;;;13.20;6.63;;;;;;;;;;5039254;28;20071;-84
2022/03/09 02:57:12;;;;;;;13.65;5.22;;;;;;;;;;5037286;28;20124;-84
2022/03/09 02:59:38;;;;;;;16.13;4.65;;;;;;;;;;5040182;28;20084;-84
2022/03/09 03:02:05;;;;;;;10.20;4.80;;;;;;;;;;5036948;28;20562;-84
2022/03/09 03:04:31;;;;;;;12.77;6.45;;;;;;;;;;5036909;28;20092;-84
2022/03/09 03:06:58;;;;;;;10.75;5.00;;;;;;;;;;5025906;28;20140;-84
2022/03/09 03:09:24;;;;;;;10.55;5.55;;;;;;;;;;5013637;28;20073;-83
2022/03/09 03:11:51;;;;;;;16.45;7.68;;;;;;;;;;5019092;28;20413;-84
2022/03/09 03:14:19;;;;;;;14.80;6.07;;;;;;;;;;5023247;28;20077;-84
2022/03/09 03:16:45;;;;;;;10.95;5.38;;;;;;;;;;5013283;28;20081;-84
2022/03/09 03:19:12;;;;;;;12.55;6.20;;;;;;;;;;5013886;28;20076;-84
2022/03/09 03:21:39;;;;;;;11.73;5.80;;;;;;;;;;5015843;28;20647;-84
2022/03/09 03:24:06;;;;;;;9.68;5.05;;;;;;;;;;5016038;28;20050;-84
2022/03/09 03:26:32;;;;;;;10.77;4.85;;;;;;;;;;5020448;28;20073;-85
2022/03/09 03:28:59;;;;;;;10.75;4.75;;;;;;;;;;5014518;28;20053;-84
2022/03/09 03:31:29;;;;;;;12.65;5.45;;;;;;;;;;5018095;28;20077;-84
2022/03/09 03:33:59;;;;;;;9.18;4.90;;;;;;;;;;5010458;28;20132;-84
2022/03/09 03:36:25;;;;;;;11.57;4.97;;;;;;;;;;5017575;28;20093;-84
2022/03/09 03:38:52;;;;;;;12.75;5.28;;;;;;;;;;5026183;28;20049;-84
2022/03/09 03:41:19;;;;;;;10.82;4.90;;;;;;;;;;5023783;28;20073;-84
2022/03/09 03:43:45;;;;;;;13.10;4.63;;;;;;;;;;5017173;28;20129;-84
2022/03/09 03:46:12;;;;;;;9.82;5.25;;;;;;;;;;5019024;28;20137;-84
2022/03/09 03:48:48;;;;;;;7.82;4.47;;;;;;;;;;5019147;28;20041;-84
2022/03/09 03:51:16;;;;;;;7.65;4.25;;;;;;;;;;5024740;28;20084;-84
2022/03/09 03:53:42;;;;;;;10.60;5.07;;;;;;;;;;5016540;28;20050;-84
2022/03/09 03:56:09;;;;;;;10.13;5.22;;;;;;;;;;5021305;28;20077;-84
2022/03/09 03:58:35;;;;;;;8.75;5.18;;;;;;;;;;5024085;28;20076;-84
2022/03/09 04:01:02;;;;;;;9.25;4.35;;;;;;;;;;5017207;28;20078;-84
2022/03/09 04:03:28;;;;;;;10.50;4.93;;;;;;;;;;5015921;28;20081;-84
2022/03/09 04:06:03;;;;;;;11.38;4.97;;;;;;;;;;5021173;28;20076;-84
2022/03/09 04:08:36;;;;;;;9.55;4.80;;;;;;;;;;5033644;28;20049;-84
2022/03/09 04:11:02;;;;;;;10.63;4.45;;;;;;;;;;5043183;28;20109;-84
2022/03/09 04:13:29;;;;;;;10.15;4.50;;;;;;;;;;5026257;28;20038;-84
2022/03/09 04:15:55;;;;;;;11.43;5.07;;;;;;;;;;5036674;28;20428;-84
2022/03/09 04:18:22;;;;;;;14.38;5.13;;;;;;;;;;5038735;28;20069;-84
2022/03/09 04:20:49;;;;;;;15.35;4.82;;;;;;;;;;5036443;28;20504;-84
2022/03/09 04:23:17;;;;;;;9.75;4.88;;;;;;;;;;5033958;28;20042;-84
2022/03/09 04:25:43;;;;;;;11.65;4.93;;;;;;;;;;5035158;28;20054;-84
2022/03/09 04:28:10;;;;;;;11.02;4.95;;;;;;;;;;5038501;28;20738;-84
2022/03/09 04:30:37;;;;;;;12.10;5.45;;;;;;;;;;5031190;28;20045;-84
2022/03/09 04:33:04;;;;;;;8.00;4.38;;;;;;;;;;5042185;28;20057;-84
2022/03/09 04:35:30;;;;;;;9.25;5.43;;;;;;;;;;5038813;28;20565;-84
2022/03/09 04:37:57;;;;;;;12.75;5.70;;;;;;;;;;5042596;28;20104;-84
2022/03/09 04:40:25;;;;;;;8.93;4.63;;;;;;;;;;5044633;28;20622;-84
2022/03/09 04:42:52;;;;;;;10.93;5.30;;;;;;;;;;5041636;28;20076;-84
2022/03/09 04:45:18;;;;;;;8.40;4.57;;;;;;;;;;5034409;28;20729;-84
2022/03/09 04:47:45;;;;;;;10.17;4.37;;;;;;;;;;5035698;28;20103;-84
2022/03/09 04:50:12;;;;;;;8.63;4.57;;;;;;;;;;5038722;28;20084;-84
2022/03/09 04:52:38;;;;;;;11.82;5.03;;;;;;;;;;5037834;28;20057;-84
2022/03/09 04:55:06;;;;;;;9.75;5.43;;;;;;;;;;5038836;28;20128;-84
2022/03/09 04:57:36;;;;;;;10.30;4.65;;;;;;;;;;5038439;28;20045;-84
2022/03/09 05:00:04;;;;;;;9.57;4.85;;;;;;;;;;5039470;28;20076;-84
2022/03/09 05:02:31;;;;;;;11.18;5.50;;;;;;;;;;5043783;28;20079;-84
2022/03/09 05:04:57;;;;;;;11.13;5.40;;;;;;;;;;5033468;28;20049;-84
2022/03/09 05:07:24;;;;;;;10.73;4.63;;;;;;;;;;5017886;28;20116;-84
2022/03/09 05:09:50;;;;;;;11.73;5.00;;;;;;;;;;5013121;28;20050;-84
2022/03/09 05:12:20;;;;;;;16.17;5.93;;;;;;;;;;5017380;28;20077;-83
2022/03/09 05:14:48;;;;;;;10.90;5.07;;;;;;;;;;5015333;28;20476;-84
2022/03/09 05:17:15;;;;;;;11.00;5.53;;;;;;;;;;5028289;28;20099;-83
2022/03/09 05:19:41;;;;;;;11.67;4.40;;;;;;;;;;5015060;28;20073;-83
2022/03/09 05:22:09;;;;;;;13.45;6.05;;;;;;;;;;5012902;28;20132;-83
2022/03/09 05:24:36;;;;;;;10.80;5.97;;;;;;;;;;5013493;28;20053;-83
2022/03/09 05:27:02;;;;;;;14.48;8.00;;;;;;;;;;5012591;28;20046;-84
2022/03/09 05:29:29;;;;;;;10.05;6.30;;;;;;;;;;5004895;28;20572;-83
2022/03/09 05:31:59;;;;;;;9.95;5.57;;;;;;;;;;5013167;28;20140;-84
2022/03/09 05:34:30;;;;;;;11.50;5.20;;;;;;;;;;5020972;28;20041;-84
2022/03/09 05:36:59;;;;;;;13.67;5.70;;;;;;;;;;5013434;28;20137;-84
2022/03/09 05:39:26;;;;;;;11.82;6.03;;;;;;;;;;5012432;28;20061;-84
2022/03/09 05:41:52;;;;;;;15.27;6.25;;;;;;;;;;5013924;28;20133;-83
2022/03/09 05:44:22;;;;;;;11.83;5.33;;;;;;;;;;5012088;28;20057;-84
2022/03/09 05:46:50;;;;;;;10.50;5.95;;;;;;;;;;5012481;28;20046;-85
2022/03/09 05:49:18;;;;;;;13.30;6.05;;;;;;;;;;5013051;28;20105;-85
2022/03/09 05:51:44;;;;;;;15.03;6.50;;;;;;;;;;5015529;28;20583;-85
2022/03/09 05:54:11;;;;;;;14.23;6.05;;;;;;;;;;5010803;28;20050;-85
2022/03/09 05:56:38;;;;;;;13.88;6.90;;;;;;;;;;5015234;28;20080;-85
2022/03/09 05:59:04;;;;;;;12.95;6.80;;;;;;;;;;5016389;28;20524;-84
2022/03/09 06:01:31;;;;;;;12.18;5.75;;;;;;;;;;5018478;28;20078;-85
2022/03/09 06:03:57;;;;;;;18.63;7.65;;;;;;;;;;5016580;28;20050;-84
2022/03/09 06:06:25;;;;;;;11.00;5.65;;;;;;;;;;5013110;28;20049;-84
2022/03/09 06:08:52;;;;;;;12.10;6.22;;;;;;;;;;5033133;28;20444;-84
2022/03/09 06:11:18;;;;;;;12.27;7.20;;;;;;;;;;5034317;28;20088;-84
2022/03/09 06:13:45;;;;;;;12.82;5.75;;;;;;;;;;5034580;28;20538;-85
2022/03/09 06:16:11;;;;;;;11.65;6.22;;;;;;;;;;5036516;28;20103;-85
2022/03/09 06:18:38;;;;;;;16.33;6.68;;;;;;;;;;5035417;28;20079;-85
2022/03/09 06:21:05;;;;;;;14.20;7.10;;;;;;;;;;5033305;28;20045;-85
2022/03/09 06:23:33;;;;;;;12.90;6.95;;;;;;;;;;5039434;28;20049;-85
2022/03/09 06:26:00;;;;;;;17.23;8.38;;;;;;;;;;5035144;28;20064;-85
2022/03/09 06:28:27;;;;;;;16.13;7.72;;;;;;;;;;5034150;28;20049;-85
2022/03/09 06:30:53;;;;;;;16.20;7.25;;;;;;;;;;5033696;28;20057;-85
2022/03/09 06:33:20;;;;;;;24.98;9.18;;;;;;;;;;5032404;28;20101;-85
2022/03/09 06:35:46;;;;;;;18.88;10.55;;;;;;;;;;5033553;28;20614;-85
2022/03/09 06:38:14;;;;;;;19.30;8.82;;;;;;;;;;5034733;28;20133;-85
2022/03/09 06:40:42;;;;;;;14.27;6.65;;;;;;;;;;5042031;28;20088;-85
2022/03/09 06:43:09;;;;;;;14.20;7.07;;;;;;;;;;5036233;28;20068;-85
2022/03/09 06:45:36;;;;;;;21.17;7.63;;;;;;;;;;5036701;28;20136;-85
2022/03/09 06:48:02;;;;;;;16.98;7.63;;;;;;;;;;5036113;28;20160;-85
2022/03/09 06:50:29;;;;;;;16.95;6.00;;;;;;;;;;5033984;28;20232;-85
2022/03/09 06:52:56;;;;;;;16.88;6.20;;;;;;;;;;5038719;28;20073;-85
2022/03/09 06:55:23;;;;;;;16.48;7.47;;;;;;;;;;5032593;28;20137;-85
2022/03/09 06:57:51;;;;;;;17.85;7.45;;;;;;;;;;5033892;28;20041;-85
2022/03/09 07:00:19;;;;;;;14.07;6.53;;;;;;;;;;5037771;28;20061;-85
2022/03/09 07:02:46;;;;;;;13.38;7.18;;;;;;;;;;5036654;28;20132;-85
2022/03/09 07:05:13;;;;;;;14.60;6.72;;;;;;;;;;5036161;28;20076;-86
2022/03/09 07:07:40;;;;;;;16.70;7.93;;;;;;;;;;5040684;28;20571;-85
2022/03/09 07:10:11;;;;;;;15.60;8.63;;;;;;;;;;5036431;28;20091;-86
2022/03/09 07:12:38;;;;;;;15.15;7.38;;;;;;;;;;5034343;28;20058;-86
2022/03/09 07:15:06;;;;;;;14.93;8.00;;;;;;;;;;5034531;28;20468;-86
2022/03/09 07:17:33;;;;;;;15.75;10.07;;;;;;;;;;5031535;28;20073;-86
2022/03/09 07:19:59;;;;;;;16.10;7.57;;;;;;;;;;5035839;28;20038;-86
2022/03/09 07:22:26;;;;;;;18.13;8.02;;;;;;;;;;5036359;28;20045;-85
2022/03/09 07:24:52;;;;;;;14.70;7.32;;;;;;;;;;5041546;28;20049;-85
2022/03/09 07:27:19;;;;;;;16.58;8.27;;;;;;;;;;5037153;28;20048;-85
2022/03/09 07:29:45;;;;;;;12.77;7.07;;;;;;;;;;5034407;28;20081;-85
2022/03/09 07:32:14;;;;;;;17.55;8.43;;;;;;;;;;5036512;28;20049;-85
2022/03/09 07:34:41;;;;;;;18.42;8.48;;;;;;;;;;5033097;28;20136;-86
2022/03/09 07:37:07;;;;;;;15.07;8.30;;;;;;;;;;5040332;28;20083;-86
2022/03/09 07:39:35;;;;;;;15.98;7.90;;;;;;;;;;5037255;28;20057;-86
2022/03/09 07:42:01;;;;;;;16.95;8.10;;;;;;;;;;5037090;28;20132;-86
2022/03/09 07:44:28;;;;;;;14.80;8.30;;;;;;;;;;5036753;28;20515;-86
2022/03/09 07:46:55;;;;;;;17.27;8.40;;;;;;;;;;5034862;28;20073;-86
2022/03/09 07:49:23;;;;;;;16.00;8.32;;;;;;;;;;5035971;28;20579;-86
2022/03/09 07:51:50;;;;;;;16.27;8.27;;;;;;;;;;5040527;28;20089;-86
2022/03/09 07:54:17;;;;;;;15.63;7.45;;;;;;;;;;5033743;28;20080;-86
2022/03/09 07:56:44;;;;;;;17.33;7.93;;;;;;;;;;5034890;28;20053;-86
2022/03/09 07:59:12;;;;;;;14.25;8.05;;;;;;;;;;5033775;28;20073;-86
2022/03/09 08:01:39;;;;;;;16.13;8.48;;;;;;;;;;5036310;28;20571;-84
2022/03/09 08:04:06;;;;;;;15.98;7.57;;;;;;;;;;5043213;28;20056;-84
2022/03/09 08:06:37;;;;;;;17.27;9.55;;;;;;;;;;5041361;28;20578;-84
2022/03/09 08:09:03;;;;;;;12.95;7.50;;;;;;;;;;5031962;28;20050;-84
2022/03/09 08:11:30;;;;;;;18.25;8.60;;;;;;;;;;5041837;28;20136;-84
2022/03/09 08:13:57;;;;;;;14.65;7.68;;;;;;;;;;5039787;28;20377;-86
2022/03/09 08:16:23;;;;;;;17.35;8.20;;;;;;;;;;5039153;28;20528;-86
2022/03/09 08:18:50;;;;;;;13.50;7.88;;;;;;;;;;5032382;28;20123;-84
2022/03/09 08:21:16;;;;;;;14.55;7.60;;;;;;;;;;5042842;28;20140;-86
2022/03/09 08:23:44;;;;;;;17.98;9.00;;;;;;;;;;5042369;28;20133;-86
2022/03/09 08:26:11;;;;;;;14.10;7.80;;;;;;;;;;5037417;28;20124;-86
2022/03/09 08:28:37;;;;;;;16.63;8.55;;;;;;;;;;5039953;28;20466;-85
2022/03/09 08:31:05;;;;;;;16.05;9.05;;;;;;;;;;5038806;28;20045;-86
2022/03/09 08:33:31;;;;;;;17.50;9.00;;;;;;;;;;5017486;28;20049;-86
2022/03/09 08:35:58;;;;;;;17.08;10.35;;;;;;;;;;5035996;28;20535;-86
2022/03/09 08:38:24;;;;;;;13.57;8.05;;;;;;;;;;5037575;28;20096;-86
2022/03/09 08:40:53;;;;;;;13.35;8.00;;;;;;;;;;5044018;28;20547;-86
2022/03/09 08:43:20;;;;;;;22.38;9.38;;;;;;;;;;5039425;28;20412;-84
2022/03/09 08:45:46;;;;;;;16.17;8.40;;;;;;;;;;5033502;28;20120;-86
2022/03/09 08:48:13;;;;;;;15.65;8.40;;;;;;;;;;5035288;28;20084;-86
2022/03/09 08:50:40;;;;;;;12.02;7.55;;;;;;;;;;5036951;28;20512;-86
2022/03/09 08:53:06;;;;;;;24.35;8.80;;;;;;;;;;5038439;28;20471;-84
2022/03/09 08:55:33;;;;;;;14.63;7.70;;;;;;;;;;5043576;28;20084;-83
2022/03/09 08:58:01;;;;;;;16.70;9.48;;;;;;;;;;5036009;28;20638;-84
2022/03/09 09:00:28;;;;;;;13.73;8.05;;;;;;;;;;5032667;28;20085;-84
2022/03/09 09:02:55;;;;;;;14.13;7.70;;;;;;;;;;5037767;28;20045;-84
2022/03/09 09:05:22;;;;;;;17.52;9.20;;;;;;;;;;5035177;28;20056;-86
2022/03/09 09:07:49;;;;;;;13.93;9.18;;;;;;;;;;5018272;28;20050;-87
2022/03/09 09:10:15;;;;;;;11.85;7.45;;;;;;;;;;5018927;28;20046;-87
2022/03/09 09:12:42;;;;;;;13.70;8.20;;;;;;;;;;5020571;28;20077;-86
2022/03/09 09:15:11;;;;;;;18.48;8.32;;;;;;;;;;5011600;28;20058;-84
2022/03/09 09:17:38;;;;;;;12.50;7.43;;;;;;;;;;5012245;28;20125;-84
2022/03/09 09:20:05;;;;;;;11.20;7.45;;;;;;;;;;5011890;28;20077;-84
2022/03/09 09:22:32;;;;;;;19.13;8.07;;;;;;;;;;5010595;28;20524;-84
2022/03/09 09:25:00;;;;;;;13.02;7.63;;;;;;;;;;5011010;28;20069;-84
2022/03/09 09:27:26;;;;;;;12.30;7.38;;;;;;;;;;5016927;28;20105;-84
2022/03/09 09:29:53;;;;;;;13.38;7.32;;;;;;;;;;5019273;28;20144;-84
2022/03/09 09:32:21;;;;;;;14.98;10.85;;;;;;;;;;5009595;28;20752;-84
2022/03/09 09:34:50;;;;;;;16.75;10.23;;;;;;;;;;5019685;28;20045;-84
2022/03/09 09:37:46;;;;;;;14.88;8.88;;;;;;;;;;5019600;28;20046;-84
2022/03/09 09:40:14;;;;;;;12.63;8.00;;;;;;;;;;5023710;28;20046;-83
2022/03/09 09:42:42;;;;;;;14.27;8.55;;;;;;;;;;5033594;28;20054;-84
2022/03/09 09:45:15;;;;;;;12.30;8.18;;;;;;;;;;5015473;28;20060;-84
2022/03/09 09:47:42;;;;;;;14.55;8.43;;;;;;;;;;5028981;28;20073;-84
2022/03/09 09:50:13;;;;;;;12.02;7.90;;;;;;;;;;5023723;28;20050;-84
2022/03/09 09:52:41;;;;;;;14.68;8.43;;;;;;;;;;5015225;28;20524;-84
2022/03/09 09:55:09;;;;;;;12.05;8.30;;;;;;;;;;5012098;28;21397;-84
2022/03/09 09:57:36;;;;;;;15.07;8.45;;;;;;;;;;5014381;28;20037;-84
2022/03/09 10:00:05;;;;;;;14.98;8.88;;;;;;;;;;5014166;28;20079;-84
2022/03/09 10:02:31;;;;;;;12.77;9.07;;;;;;;;;;5013874;28;20048;-84
2022/03/09 10:04:59;;;;;;;11.75;8.05;;;;;;;;;;5014070;28;20140;-84
2022/03/09 10:07:26;;;;;;;15.57;8.80;;;;;;;;;;5031231;28;20110;-84
2022/03/09 10:09:52;;;;;;;14.52;10.02;;;;;;;;;;5038093;28;20132;-84
2022/03/09 10:12:27;;;;;;;12.73;8.32;;;;;;;;;;5047680;28;20151;-84
2022/03/09 10:14:54;;;;;;;12.25;8.07;;;;;;;;;;5038440;28;20535;-84
2022/03/09 10:17:23;;;;;;;13.90;9.23;;;;;;;;;;5039919;28;20116;-84
2022/03/09 10:19:52;;;;;;;14.75;9.20;;;;;;;;;;5040871;28;20319;-84
2022/03/09 10:22:31;;;;;;;18.20;9.82;;;;;;;;;;5043531;28;20189;-84
2022/03/09 10:24:58;;;;;;;14.50;9.57;;;;;;;;;;5039264;28;20083;-84
2022/03/09 10:27:37;;;;;;;16.35;9.65;;;;;;;;;;5036860;28;20076;-84
2022/03/09 10:30:07;;;;;;;16.65;10.10;;;;;;;;;;5033820;28;20132;-84
2022/03/09 10:32:44;;;;;;;17.85;10.68;;;;;;;;;;5039922;28;20083;-84
2022/03/09 10:35:11;;;;;;;14.95;9.60;;;;;;;;;;5036011;28;20097;-84
2022/03/09 10:37:43;;;;;;;16.08;9.80;;;;;;;;;;5046718;28;20087;-84
2022/03/09 10:40:12;;;;;;;15.23;9.15;;;;;;;;;;5034650;28;20135;-84
2022/03/09 10:42:38;;;;;;;14.23;9.18;;;;;;;;;;5033937;28;20072;-84
2022/03/09 10:45:07;;;;;;;14.02;8.73;;;;;;;;;;5038482;28;20121;-84
2022/03/09 10:47:35;;;;;;;14.80;9.13;;;;;;;;;;5041119;28;20131;-84
2022/03/09 10:50:10;;;;;;;17.15;9.98;;;;;;;;;;5038123;28;20076;-84
2022/03/09 10:52:49;;;;;;;13.57;9.38;;;;;;;;;;5030453;28;20053;-83
2022/03/09 10:55:23;;;;;;;14.68;9.55;;;;;;;;;;5036036;28;20475;-84
2022/03/09 10:57:50;;;;;;;13.60;9.30;;;;;;;;;;5039146;28;20507;-84
2022/03/09 11:00:17;;;;;;;15.15;9.30;;;;;;;;;;5035116;28;20747;-84
2022/03/09 11:02:49;;;;;;;12.23;8.02;;;;;;;;;;5042025;28;20136;-83
2022/03/09 11:05:17;;;;;;;11.70;7.90;;;;;;;;;;5034901;28;20053;-83
2022/03/09 11:07:44;;;;;;;14.55;9.40;;;;;;;;;;5033507;28;20103;-83
2022/03/09 11:10:13;;;;;;;14.68;9.57;;;;;;;;;;5039453;28;20081;-83
2022/03/09 11:12:40;;;;;;;13.35;9.13;;;;;;;;;;5039447;28;20072;-83
2022/03/09 11:15:08;;;;;;;15.25;10.20;;;;;;;;;;5035758;28;20072;-83
2022/03/09 11:17:34;;;;;;;14.98;9.48;;;;;;;;;;5041191;28;20050;-83
2022/03/09 11:20:01;;;;;;;14.38;9.55;;;;;;;;;;5034547;28;20114;-84
2022/03/09 11:22:28;;;;;;;15.05;9.85;;;;;;;;;;5037447;28;20538;-83
2022/03/09 11:24:54;;;;;;;13.85;9.23;;;;;;;;;;5043198;28;20045;-83
2022/03/09 11:27:22;;;;;;;13.80;9.63;;;;;;;;;;5039419;28;20099;-83
2022/03/09 11:29:49;;;;;;;16.17;11.10;;;;;;;;;;5043960;28;20076;-84
2022/03/09 11:32:34;;;;;;;13.70;9.50;;;;;;;;;;5035693;28;20117;-83
2022/03/09 11:35:01;;;;;;;15.63;9.40;;;;;;;;;;5036755;28;20470;-84
2022/03/09 11:37:35;;;;;;;14.45;9.07;;;;;;;;;;5042846;28;20653;-84
2022/03/09 11:40:15;;;;;;;14.77;9.15;;;;;;;;;;5038446;28;20148;-84
2022/03/09 11:42:44;;;;;;;14.27;9.23;;;;;;;;;;5037750;28;20056;-84
2022/03/09 11:45:34;;;;;;;14.25;9.85;;;;;;;;;;5038978;28;20054;-84
2022/03/09 11:48:10;;;;;;;15.05;9.63;;;;;;;;;;5049722;28;20102;-84
2022/03/09 11:51:09;;;;;;;14.77;10.18;;;;;;;;;;5039784;28;20057;-84
2022/03/09 11:53:38;;;;;;;14.98;9.75;;;;;;;;;;5038584;28;20647;-84
2022/03/09 11:56:35;;;;;;;12.93;9.57;;;;;;;;;;5033451;28;20041;-84
2022/03/09 11:59:11;;;;;;;16.55;9.15;;;;;;;;;;5039683;28;20487;-84
2022/03/09 12:02:14;;;;;;;13.60;9.20;;;;;;;;;;5035026;28;20084;-84
2022/03/09 12:04:59;;;;;;;14.23;9.10;;;;;;;;;;5033935;28;20046;-84
2022/03/09 12:07:49;;;;;;;14.70;10.10;;;;;;;;;;5030815;28;20689;-84
2022/03/09 12:10:16;;;;;;;16.05;9.65;;;;;;;;;;5029018;28;20045;-85
2022/03/09 12:13:20;;;;;;;14.45;8.85;;;;;;;;;;5036539;28;20073;-85
2022/03/09 12:16:17;;;;;;;12.75;8.82;;;;;;;;;;5033036;28;20103;-85
2022/03/09 12:18:44;;;;;;;;;;;;;;;;;;5031427;28;20077;-85
2022/03/09 12:21:12;;;;;;;14.40;9.23;;;;;;;;;;5029695;28;20016;-85
2022/03/09 12:24:21;;;;;;;16.48;9.65;;;;;;;;;;5033134;28;20136;-85
2022/03/09 12:26:49;;;;;;;18.48;9.93;;;;;;;;;;5030224;28;20049;-85
2022/03/09 12:29:37;;;;;;;15.70;9.45;;;;;;;;;;5029582;28;20049;-85
2022/03/09 12:32:06;;;;;;;15.07;9.88;;;;;;;;;;5026413;28;20045;-85
2022/03/09 12:34:35;;;;;;;14.88;8.45;;;;;;;;;;5030102;28;20530;-85
2022/03/09 12:37:03;;;;;;;14.90;9.95;;;;;;;;;;5031413;28;20045;-85
2022/03/09 12:39:30;;;;;;;16.15;9.65;;;;;;;;;;5035552;28;20488;-85
2022/03/09 12:41:58;;;;;;;12.73;8.45;;;;;;;;;;5032010;28;20081;-85
2022/03/09 12:44:25;;;;;;;15.00;9.27;;;;;;;;;;5031547;28;20095;-85
2022/03/09 12:46:53;;;;;;;14.40;9.02;;;;;;;;;;5034344;28;20053;-85
2022/03/09 12:49:29;;;;;;;15.32;10.50;;;;;;;;;;5030591;28;20500;-85
2022/03/09 12:51:57;;;;;;;14.07;8.77;;;;;;;;;;5029897;28;20091;-85
2022/03/09 12:54:37;;;;;;;16.33;9.40;;;;;;;;;;5034444;28;20073;-84
2022/03/09 12:57:10;;;;;;;14.77;8.65;;;;;;;;;;5027262;28;20515;-84
2022/03/09 12:59:36;;;;;;;14.15;9.13;;;;;;;;;;5032703;28;20087;-85
2022/03/09 13:02:04;;;;;;;13.50;8.90;;;;;;;;;;5032456;28;20037;-85
2022/03/09 13:04:32;;;;;;;22.30;9.40;;;;;;;;;;5031559;28;20076;-84
2022/03/09 13:07:14;;;;;;;13.48;8.73;;;;;;;;;;5028125;28;20088;-84
2022/03/09 13:09:44;;;;;;;15.55;9.48;;;;;;;;;;5024521;28;20041;-84
2022/03/09 13:12:12;;;;;;;14.52;9.30;;;;;;;;;;5029336;28;20052;-84
2022/03/09 13:14:42;;;;;;;13.45;9.27;;;;;;;;;;5024955;28;20144;-85
2022/03/09 13:17:09;;;;;;;17.15;8.70;;;;;;;;;;5028530;28;20911;-85
2022/03/09 13:19:38;;;;;;;13.45;8.07;;;;;;;;;;5029783;28;20084;-85
2022/03/09 13:22:05;;;;;;;14.35;8.77;;;;;;;;;;5029520;28;20136;-85
2022/03/09 13:24:32;;;;;;;12.80;8.90;;;;;;;;;;5028344;28;20056;-85
2022/03/09 13:26:58;;;;;;;12.32;7.75;;;;;;;;;;5030153;28;20141;-85
2022/03/09 13:29:25;;;;;;;11.40;7.65;;;;;;;;;;5025306;28;20133;-85
2022/03/09 13:31:57;;;;;;;13.82;8.88;;;;;;;;;;5028806;28;20052;-85
2022/03/09 13:34:25;;;;;;;11.93;8.57;;;;;;;;;;5033263;28;20415;-85
2022/03/09 13:37:01;;;;;;;13.38;9.38;;;;;;;;;;5027824;28;20077;-85
2022/03/09 13:39:37;;;;;;;;;;;;;;;;;;5027924;28;20511;-85
2022/03/09 13:42:05;;;;;;;13.57;7.50;;;;;;;;;;5030075;28;19972;-85
2022/03/09 13:44:32;;;;;;;11.93;7.55;;;;;;;;;;5029624;28;20139;-85
2022/03/09 13:47:06;;;;;;;10.82;7.35;;;;;;;;;;5029630;28;20136;-85
2022/03/09 13:49:44;;;;;;;10.77;7.75;;;;;;;;;;5028922;28;20045;-85
2022/03/09 13:52:23;;;;;;;10.32;6.72;;;;;;;;;;5028440;28;20045;-85
2022/03/09 13:54:50;;;;;;;10.45;7.10;;;;;;;;;;5026844;28;20539;-85
2022/03/09 13:57:30;;;;;;;11.88;7.53;;;;;;;;;;5028736;28;20085;-85
2022/03/09 13:59:58;;;;;;;12.27;7.18;;;;;;;;;;5028762;28;20115;-84
2022/03/09 14:02:25;;;;;;;14.00;7.28;;;;;;;;;;5029463;28;20080;-85
2022/03/09 14:04:52;;;;;;;9.32;6.53;;;;;;;;;;5026643;28;20049;-84
2022/03/09 14:07:21;;;;;;;10.27;6.68;;;;;;;;;;5027135;28;20557;-85
2022/03/09 14:10:13;;;;;;;11.40;7.20;;;;;;;;;;5002960;28;20041;-85
2022/03/09 14:12:41;;;;;;;9.45;7.25;;;;;;;;;;5004647;28;20138;-85
2022/03/09 14:15:09;;;;;;;11.98;7.10;;;;;;;;;;5008777;28;20073;-85
2022/03/09 14:17:35;;;;;;;10.38;6.63;;;;;;;;;;5008985;28;20132;-85
2022/03/09 14:20:02;;;;;;;11.65;6.30;;;;;;;;;;5009411;28;20046;-85
2022/03/09 14:22:41;;;;;;;9.73;6.57;;;;;;;;;;5012434;28;20202;-86
2022/03/09 14:25:09;;;;;;;11.02;7.20;;;;;;;;;;5011506;28;20567;-85
2022/03/09 14:27:37;;;;;;;10.15;6.65;;;;;;;;;;5011538;28;20084;-85
2022/03/09 14:30:05;;;;;;;10.05;6.65;;;;;;;;;;5010362;28;20085;-85
2022/03/09 14:32:32;;;;;;;9.18;6.45;;;;;;;;;;5003918;28;20138;-85
2022/03/09 14:34:59;;;;;;;12.20;7.22;;;;;;;;;;5020063;28;20073;-85
2022/03/09 14:37:26;;;;;;;9.07;7.03;;;;;;;;;;5016658;28;20092;-85
2022/03/09 14:39:52;;;;;;;10.13;6.88;;;;;;;;;;5014018;28;20132;-85
2022/03/09 14:42:19;;;;;;;9.13;6.10;;;;;;;;;;5018984;28;20049;-84